函館空港の過去48時間の天気

函館空港 (Hakodate)

現在時刻: 9/17 00:16 JST (9/16 15:16 UTC) 以下の時間は現地時間です。

過去48時間のMETAR気象情報
時間 風向 風速(m/s) 視程 気温(℃) 湿度(%) 気圧(hPa) 天気現象
16 20:00 不定 1 10km以上 21 94 1004
16 19:00 静穏 0 10km以上 21 94 1004
16 18:00 不定 1 10km以上 22 83 1003
16 17:00 東南東 3 10km以上 22 88 1004
16 16:00 東南東 5 10km以上 23 83 1004
16 15:00 南東 5 10km以上 23 83 1005
16 14:00 4 10km以上 25 78 1004
16 13:00 東南東 6 10km以上 23 83 1005
16 12:00 南東 8 10km以上 25 78 1006
16 11:00 東南東 6 10km以上 24 78 1007
16 10:00 東南東 7 10km以上 23 89 1007
16 09:00 東南東 7 10km以上 24 83 1008
16 08:00 東南東 6 10km以上 23 89 1008
16 07:00 4 10km以上 23 83 1008
16 06:10 東北東 3 10km以上 21 94 1008
15 20:00 北東 3 10km以上 20 88 1011
15 19:00 東北東 3 10km以上 20 94 1011
15 18:00 東北東 2 10km以上 20 88 1011
15 17:00 北北東 2 10km以上 21 88 1011
15 16:00 北東 2 10km以上 21 88 1011
15 15:00 北東 3 10km以上 21 88 1010 弱いしゅう雨
15 14:00 東北東 3 10km以上 22 83 1010
15 13:00 不定 1 10km以上 22 78 1010
15 12:00 南南西 3 10km以上 23 73 1011
15 11:00 2 10km以上 23 69 1011
15 10:00 2 10km以上 22 78 1011
15 09:00 不定 1 10km以上 23 78 1011
15 08:00 不定 1 10km以上 22 78 1011 弱いしゅう雨
15 07:00 不定 1 10km以上 20 88 1010 弱いしゅう雨
15 06:10 不定 1 10km以上 18 94 1010
RJCH 161100Z VRB02KT 9999 FEW007 SCT018 BKN035 21/20 Q1004
RJCH 161000Z 00000KT 9999 FEW008 SCT020 BKN035 21/20 Q1004
RJCH 160900Z VRB02KT 9999 FEW008 SCT025 BKN090 22/19 Q1003
RJCH 160800Z 12005KT 9999 FEW008 SCT025 BKN100 22/20 Q1004
RJCH 160700Z 12009KT 9999 FEW010 SCT025 BKN100 23/20 Q1004
RJCH 160600Z 13009KT 9999 FEW010 SCT025 BKN100 23/20 Q1005
RJCH 160500Z 10008KT 070V140 9999 FEW010 SCT025 BKN120 25/21 Q1004
RJCH 160400Z 12012KT 9999 FEW010 SCT025 BKN040 23/20 Q1005
RJCH 160300Z 13015KT 9999 FEW012 SCT020 BKN040 25/21 Q1006
RJCH 160200Z 11011KT 9999 FEW008 SCT012 BKN030 24/20 Q1007
RJCH 160100Z 12013KT 9999 FEW007 SCT012 BKN025 23/21 Q1007
RJCH 160000Z 12013KT 9999 FEW010 SCT025 BKN040 24/21 Q1008
RJCH 152300Z 11011KT 9999 FEW010 SCT030 BKN090 23/21 Q1008
RJCH 152200Z 09008KT 9999 FEW012 SCT025 BKN100 23/20 Q1008
RJCH 152110Z 06005KT 9999 FEW008 SCT015 BKN030 21/20 Q1008 RMK 1ST008 3ST015 5CU030 A2978
RJCH 151100Z 05005KT 020V080 9999 FEW030 SCT040 BKN050 20/18 Q1011
RJCH 151000Z 06005KT 030V090 9999 FEW030 SCT040 BKN050 20/19 Q1011
RJCH 150900Z 07004KT 9999 FEW025 BKN040 BKN060 20/18 Q1011
RJCH 150800Z 03003KT 300V090 9999 FEW020 SCT035 BKN050 21/19 Q1011
RJCH 150700Z 05004KT 9999 FEW020 SCT030 BKN045 21/19 Q1011
RJCH 150600Z 05005KT 010V080 9999 -SHRA FEW020 SCT030 BKN070 21/19 Q1010
RJCH 150500Z 06005KT 9999 FEW025 SCT040 BKN060 22/19 Q1010
RJCH 150400Z VRB02KT 9999 FEW025 SCT040 BKN070 22/18 Q1010
RJCH 150300Z 20005KT 150V220 9999 FEW030 SCT050 BKN080 23/18 Q1011
RJCH 150200Z 18004KT 130V220 9999 FEW030 SCT080 BKN120 23/17 Q1011
RJCH 150100Z 19004KT 140V210 9999 FEW025 SCT060 BKN130 22/18 Q1011
RJCH 150000Z VRB02KT 9999 FEW030 SCT050 BKN130 23/19 Q1011
RJCH 142300Z VRB02KT 9999 -SHRA FEW025 SCT040 BKN060 22/18 Q1011
RJCH 142200Z VRB01KT 9999 -SHRA FEW020 SCT040 BKN070 20/18 Q1010
RJCH 142110Z VRB01KT 9999 FEW030 BKN140 18/17 Q1010 RMK 1CU030 5AC140 A2985